Shoreham, Vermont
Current Conditions -  °F | °C
As of 10:15 PM on Monday 26 Jan 2015 (Local Time) from K6B0 Reporting Station
Scattered Clouds Scattered Clouds  
Wind Chill: -1°   Ceiling: Unl
Heat Index:   Visibility: 10mi
Dew Point:   Wind: 6mph
Humidity: 73%   Direction: 360°N
Pressure: 30.04"   Gusts: NA
Location:  43.89°N, 73.31°W
Report Text: K6B0 270315Z AUTO 36005KT 10SM SCT065 SCT080 M13/M17 A3004 RMK AO2 T11301169
Loading
Personal Weather Stations






























Interactive Weather Map New forecast layout! Learn more

10-Day Weather Forecast

Advertisements
Track Severe Weather on mobile